Home > Products > Valid Products > TAF

000
FTUS41 KILN 190200 AAA
TAFDAY
TAF AMD
KDAY 190244Z 1903/1924 05005KT P6SM SCT060
     FM191400 08009KT P6SM FEW050=



000
FTUS41 KILN 190200 AAA
TAFLUK
TAF AMD
KLUK 190244Z 1903/1924 00000KT P6SM SKC
     FM190400 00000KT 4SM BR SKC
     FM190700 00000KT 1/4SM FG VV001
     FM191200 VRB03KT 4SM BR SCT015
     FM191300 09005KT P6SM FEW050=



000
FTUS41 KILN 190200 AAA
TAFLCK
TAF AMD
KLCK 190244Z 1903/1924 04003KT P6SM SKC
     FM191400 08007KT P6SM FEW050=



000
FTUS41 KILN 190200 AAA
TAFCMH
TAF AMD
KCMH 190244Z 1903/1924 05007KT P6SM FEW050
     FM191400 08007KT P6SM FEW050=



000
FTUS41 KILN 190200 AAA
TAFCVG
TAF AMD
KCVG 190244Z 1903/2006 07005KT P6SM SKC
     FM191400 10007KT P6SM FEW050
     FM200000 09003KT P6SM SKC=



000
FTUS41 KILN 190200 AAA
TAFILN
TAF AMD
KILN 190244Z 1903/1924 07004KT P6SM SKC
      TEMPO 1909/1912 00000KT 5SM BR
     FM191400 07008KT P6SM FEW050=



000
FTUS41 KILN 182300
TAFLCK
TAF
KLCK 182330Z 1900/1924 08003KT P6SM SKC
     FM191400 08007KT P6SM FEW050=



000
FTUS41 KILN 182300
TAFILN
TAF
KILN 182330Z 1900/1924 VRB03KT P6SM SKC
      TEMPO 1909/1912 00000KT 5SM BR
     FM191400 07008KT P6SM FEW050=



000
FTUS41 KILN 182300
TAFCMH
TAF
KCMH 182330Z 1900/1924 07004KT P6SM FEW060
     FM191400 08007KT P6SM FEW050=



000
FTUS41 KILN 182300
TAFCVG
TAF
KCVG 182330Z 1900/2006 07004KT P6SM SKC
     FM191400 10007KT P6SM FEW050
     FM200000 09003KT P6SM SKC=



000
FTUS41 KILN 182300
TAFDAY
TAF
KDAY 182330Z 1900/1924 06004KT P6SM SCT060
     FM191400 08009KT P6SM FEW050=



000
FTUS41 KILN 182300
TAFLUK
TAF
KLUK 182330Z 1900/1924 04003KT P6SM SKC
     FM190400 00000KT 4SM BR SKC
     FM190700 00000KT 1/4SM FG VV001
     FM191200 VRB03KT 4SM BR SCT015
     FM191300 09005KT P6SM FEW050=



000
FTUS41 KILN 182100 AAA
TAFLCK
TAF AMD
KLCK 182100Z 1821/1918 05007G14KT P6SM SCT060
     FM190000 VRB03KT P6SM SKC
     FM191400 08006KT P6SM FEW050=



000
FTUS41 KILN 182100 AAA
TAFCMH
TAF AMD
KCMH 182100Z 1821/1918 06004KT P6SM SCT060
     FM190000 VRB03KT P6SM SKC
     FM191400 08006KT P6SM FEW050=



000
FTUS41 KILN 182100 AAA
TAFDAY
TAF AMD
KDAY 182100Z 1821/1918 05007KT P6SM FEW050
     FM182300 07004KT P6SM SKC
     FM191400 08007KT P6SM FEW050=



000
FTUS41 KILN 182100 AAA
TAFCVG
TAF AMD
KCVG 182100Z 1821/1924 09006G14KT P6SM FEW060
     FM182300 06005KT P6SM SKC
     FM191400 10007KT P6SM FEW050=



000
FTUS41 KILN 182100 AAA
TAFLUK
TAF AMD
KLUK 182100Z 1821/1918 VRB03KT P6SM FEW060
     FM182300 VRB03KT P6SM SKC
     FM190400 00000KT 4SM BR SKC
     FM190700 00000KT 1/4SM FG VV001
     FM191200 VRB03KT 4SM BR SCT015
     FM191300 09005KT P6SM FEW050=



000
FTUS41 KILN 182100 AAA
TAFILN
TAF AMD
KILN 182100Z 1821/1918 04005KT P6SM FEW060
     FM182300 VRB03KT P6SM SKC
      TEMPO 1909/1912 5SM BR
     FM191400 07006KT P6SM FEW050=



000
FTUS41 KILN 181700
TAFLUK
TAF
KLUK 181728Z 1818/1918 06010KT P6SM SCT050
     FM182300 VRB03KT P6SM SKC
     FM190400 00000KT 4SM BR SKC
     FM190700 00000KT 1/4SM FG VV001
     FM191200 VRB03KT 4SM BR SCT015
     FM191300 09005KT P6SM FEW050=



000
FTUS41 KILN 181700
TAFCVG
TAF
KCVG 181728Z 1818/1924 06012KT P6SM SCT050
     FM182300 06005KT P6SM SKC
     FM191400 10007KT P6SM FEW050=



000
FTUS41 KILN 181700
TAFILN
TAF
KILN 181728Z 1818/1918 07010KT P6SM SCT050
     FM182300 VRB03KT P6SM SKC
      TEMPO 1909/1912 5SM BR
     FM191400 07006KT P6SM FEW050=



000
FTUS41 KILN 181700
TAFDAY
TAF
KDAY 181728Z 1818/1918 05010KT P6SM SCT050
     FM182300 07004KT P6SM SKC
     FM191400 08007KT P6SM FEW050=



000
FTUS41 KILN 181700
TAFCMH
TAF
KCMH 181728Z 1818/1918 04010KT P6SM SCT050
     FM182300 VRB03KT P6SM SKC
     FM191400 08006KT P6SM FEW050=



000
FTUS41 KILN 181700
TAFLCK
TAF
KLCK 181728Z 1818/1918 04010KT P6SM SCT050
     FM182300 VRB03KT P6SM SKC
     FM191400 08006KT P6SM FEW050=



000
FTUS41 KILN 181400 AAA
TAFCVG
TAF AMD
KCVG 181457Z 1815/1918 04008KT P6SM SCT040
     FM182300 06006KT P6SM SKC
     FM191400 10007KT P6SM FEW040=



000
FTUS41 KILN 181100
TAFILN
TAF
KILN 181129Z 1812/1912 03004KT P6SM SKC
      TEMPO 1812/1813 5SM BR
     FM181400 04007KT P6SM SCT040
     FM190000 04004KT P6SM SKC
     FM190800 06004KT 4SM BR SKC=



000
FTUS41 KILN 181100
TAFCMH
TAF
KCMH 181129Z 1812/1912 03007KT P6SM SCT050
     FM182300 04003KT P6SM FEW050=



000
FTUS41 KILN 181100
TAFLUK
TAF
KLUK 181129Z 1812/1912 00000KT P6SM SCT005
      TEMPO 1812/1813 4SM BR
     FM181400 04006KT P6SM SCT040
     FM182300 00000KT P6SM SKC
     FM190400 00000KT 4SM BR SKC
     FM190700 00000KT 1/4SM FG VV001=



000
FTUS41 KILN 181100
TAFCVG
TAF
KCVG 181129Z 1812/1918 01004KT P6SM SCT100
     FM181400 04008KT P6SM SCT040
     FM182300 06006KT P6SM SKC
     FM191400 10007KT P6SM FEW040=



000
FTUS41 KILN 181100
TAFDAY
TAF
KDAY 181129Z 1812/1912 03005KT P6SM FEW050
     FM181400 05008KT P6SM SCT040
     FM190000 07004KT P6SM FEW050=



000
FTUS41 KILN 181100
TAFLCK
TAF
KLCK 181129Z 1812/1912 03007KT P6SM SCT040
     FM182300 05003KT P6SM FEW050=



000
FTUS41 KILN 180900 AAA
TAFCVG
TAF AMD
KCVG 180900Z 1809/1912 VRB03KT P6SM SCT100
     FM181400 04008KT P6SM SCT040
     FM182300 06006KT P6SM SKC=



000
FTUS41 KILN 180900 AAA
TAFLUK
TAF AMD
KLUK 180900Z 1809/1906 00000KT 3SM BR FEW003
      TEMPO 1809/1811 1/2SM FG VV001
     FM181200 00000KT 4SM BR SCT015
     FM181300 04006KT P6SM SCT040
     FM182300 00000KT P6SM SKC
     FM190400 00000KT 4SM BR SKC=



000
FTUS41 KILN 180600 AAA
TAFILN
TAF AMD
KILN 180607Z 1806/1906 VRB02KT 4SM BR SKC
      TEMPO 1809/1812 2SM BR
     FM181400 04007KT P6SM SCT040
     FM182300 04004KT P6SM FEW050=



000
FTUS41 KILN 180500
TAFCVG
TAF
KCVG 180531Z 1806/1912 VRB03KT P6SM SCT100
     FM181400 04008KT P6SM SCT040
     FM182300 06006KT P6SM SKC=



000
FTUS41 KILN 180500
TAFLUK
TAF
KLUK 180531Z 1806/1906 00000KT 3/4SM BR VV003
     FM180700 00000KT 1/2SM FG VV001
     FM181200 00000KT 4SM BR SCT015
     FM181300 04006KT P6SM SCT040
     FM182300 00000KT P6SM SKC
     FM190400 00000KT 4SM BR SKC=



000
FTUS41 KILN 180500
TAFLCK
TAF
KLCK 180531Z 1806/1906 VRB03KT P6SM FEW050
     FM181400 03008KT P6SM SCT040
     FM182300 05003KT P6SM FEW050=



000
FTUS41 KILN 180500
TAFCMH
TAF
KCMH 180531Z 1806/1906 VRB03KT P6SM FEW050
     FM181400 03008KT P6SM SCT040
     FM182300 04003KT P6SM FEW050=



000
FTUS41 KILN 180500
TAFDAY
TAF
KDAY 180531Z 1806/1906 VRB03KT P6SM SKC
     FM181400 05008KT P6SM SCT040
     FM182300 04004KT P6SM FEW050=



000
FTUS41 KILN 180500
TAFILN
TAF
KILN 180531Z 1806/1906 VRB03KT P6SM SKC
     FM180900 02003KT 4SM BR SCT150
      TEMPO 1809/1812 2SM BR
     FM181400 04007KT P6SM SCT040
     FM182300 04004KT P6SM FEW050=



000
FTUS41 KILN 180300 AAA
TAFLUK
TAF AMD
KLUK 180313Z 1803/1824 00000KT 5SM BR SKC
     FM180600 00000KT 1/2SM FG VV001
     FM181200 00000KT 4SM BR SCT015
     FM181400 04006KT P6SM SCT040=



000
FTUS41 KILN 172300
TAFILN
TAF
KILN 172329Z 1800/1824 VRB03KT P6SM SCT100
     FM180700 02003KT 4SM BR SCT150
      TEMPO 1808/1812 2SM BR
     FM181400 04007KT P6SM SCT040
     FM182300 04004KT P6SM FEW050=



000
FTUS41 KILN 172300
TAFLCK
TAF
KLCK 172329Z 1800/1824 VRB03KT P6SM FEW050
     FM181400 03008KT P6SM SCT040
     FM182300 05003KT P6SM FEW050=



000
FTUS41 KILN 172300
TAFCMH
TAF
KCMH 172329Z 1800/1824 VRB03KT P6SM FEW050
     FM181400 03008KT P6SM SCT040
     FM182300 04003KT P6SM FEW050=



000
FTUS41 KILN 172300
TAFDAY
TAF
KDAY 172329Z 1800/1824 VRB03KT P6SM FEW050
     FM181400 05008KT P6SM SCT040
     FM182300 04004KT P6SM FEW050=



000
FTUS41 KILN 172300
TAFLUK
TAF
KLUK 172329Z 1800/1824 VRB03KT P6SM SCT100
     FM180600 00000KT 4SM BR SCT100
     FM180700 00000KT 1/2SM FG VV001
     FM181200 00000KT 4SM BR SCT015
     FM181400 04006KT P6SM SCT040=



000
FTUS41 KILN 172300
TAFCVG
TAF
KCVG 172329Z 1800/1906 VRB03KT P6SM SCT100
     FM181400 04008KT P6SM SCT040
     FM182300 05004KT P6SM SKC=



000
FTUS41 KILN 172000 AAA
TAFCVG
TAF AMD
KCVG 172028Z 1720/1824 VRB03KT P6SM SCT040
     FM180000 VRB03KT P6SM BKN100
     FM180600 VRB03KT P6SM SCT100
     FM181400 04008KT P6SM SCT040=



000
FTUS41 KILN 171700
TAFLCK
TAF
KLCK 171723Z 1718/1818 VRB03KT P6SM BKN040
     FM172300 VRB03KT P6SM SCT100
     FM181400 03006KT P6SM SCT040=



000
FTUS41 KILN 171700
TAFILN
TAF
KILN 171723Z 1718/1818 VRB03KT P6SM BKN035
     FM180000 VRB03KT P6SM SCT100
      TEMPO 1808/1812 4SM BR
     FM181400 04006KT P6SM SCT040=



000
FTUS41 KILN 171700
TAFCVG
TAF
KCVG 171723Z 1718/1824 VRB03KT P6SM BKN040
     FM180000 VRB03KT P6SM BKN100
     FM180600 VRB03KT P6SM SCT100
     FM181400 04008KT P6SM SCT040=



000
FTUS41 KILN 171700
TAFCMH
TAF
KCMH 171723Z 1718/1818 VRB03KT P6SM BKN040
     FM172300 VRB03KT P6SM SCT100
     FM181400 03006KT P6SM SCT040=



000
FTUS41 KILN 171700
TAFDAY
TAF
KDAY 171723Z 1718/1818 VRB03KT P6SM BKN035
     FM172300 VRB03KT P6SM SCT100
     FM181400 04007KT P6SM SCT040=



000
FTUS41 KILN 171700
TAFLUK
TAF
KLUK 171723Z 1718/1818 VRB03KT P6SM BKN040
     FM180000 00000KT P6SM BKN100
     FM180600 00000KT 4SM BR SCT100
     FM180800 00000KT 1/2SM FG VV001
     FM181200 00000KT 4SM BR SCT015
     FM181400 04005KT P6SM SCT040=



000
FTUS41 KILN 171600 AAA
TAFLCK
TAF AMD
KLCK 171637Z 1717/1812 VRB03KT P6SM BKN040
     FM172300 35004KT P6SM FEW100=



000
FTUS41 KILN 171600 AAA
TAFCMH
TAF AMD
KCMH 171637Z 1717/1812 VRB03KT P6SM BKN040
     FM172300 35004KT P6SM FEW100=



000
FTUS41 KILN 171600 AAA
TAFILN
TAF AMD
KILN 171636Z 1717/1812 02004KT P6SM BKN040
     FM172300 35004KT P6SM BKN100
     FM180600 02004KT P6SM SCT100
     FM180900 04007KT 3SM BR SCT040=



000
FTUS41 KILN 171600 AAA
TAFLUK
TAF AMD
KLUK 171636Z 1717/1812 03005KT P6SM BKN040
     FM172300 VRB02KT P6SM BKN100
     FM180600 02004KT P6SM SCT100
     FM180900 04007KT 3SM BR SCT040=



000
FTUS41 KILN 171600 AAA
TAFDAY
TAF AMD
KDAY 171636Z 1717/1812 VRB03KT P6SM BKN040
     FM172300 35004KT P6SM FEW100=



000
FTUS41 KILN 171600 AAB
TAFCVG
TAF AMD
KCVG 171635Z 1717/1818 01005KT P6SM BKN040
     FM172300 34004KT P6SM BKN100
     FM180600 02004KT P6SM SCT100
     FM180900 04007KT P6SM SCT040=



000
FTUS41 KILN 171400 AAA
TAFCVG
TAF AMD
KCVG 171457Z 1715/1818 01005KT P6SM OVC035
     FM171600 01005KT P6SM BKN040
     FM171800 26004KT P6SM SCT040 BKN120
     FM172300 34004KT P6SM BKN100
     FM180600 02004KT P6SM SCT100
     FM180900 04007KT P6SM SCT040=



000
FTUS41 KILN 171100
TAFDAY
TAF
KDAY 171135Z 1712/1812 VRB03KT P6SM BKN035
     FM171800 26004KT P6SM SCT040 BKN120
     FM172300 35004KT P6SM FEW100=



000
FTUS41 KILN 171100
TAFLUK
TAF
KLUK 171135Z 1712/1812 VRB03KT P6SM BKN035
     FM171800 26004KT P6SM SCT040 BKN120
     FM172300 VRB02KT P6SM BKN100
     FM180600 02004KT P6SM SCT100
     FM180900 04007KT 3SM BR SCT040=



000
FTUS41 KILN 171100
TAFILN
TAF
KILN 171135Z 1712/1812 VRB03KT P6SM OVC035
      TEMPO 1712/1714 OVC028
     FM171500 VRB03KT P6SM BKN040
     FM171800 26004KT P6SM SCT040 BKN120
     FM172300 35004KT P6SM BKN100
     FM180600 02004KT P6SM SCT100
     FM180900 04007KT 3SM BR SCT040=



000
FTUS41 KILN 171100
TAFCMH
TAF
KCMH 171135Z 1712/1812 VRB03KT P6SM BKN040
     FM171800 26004KT P6SM SCT040 SCT120
     FM172300 35004KT P6SM FEW100=



000
FTUS41 KILN 171100
TAFLCK
TAF
KLCK 171135Z 1712/1812 VRB03KT P6SM BKN040
      TEMPO 1712/1713 5SM BR
     FM171800 26004KT P6SM SCT040 SCT120
     FM172300 35004KT P6SM FEW100=



000
FTUS41 KILN 171100
TAFCVG
TAF
KCVG 171135Z 1712/1818 00000KT P6SM OVC035
      TEMPO 1712/1714 OVC028
     FM171500 VRB03KT P6SM BKN040
     FM171800 26004KT P6SM SCT040 BKN120
     FM172300 34004KT P6SM BKN100
     FM180600 02004KT P6SM SCT100
     FM180900 04007KT P6SM SCT040=



000
FTUS41 KILN 171000 AAB
TAFILN
TAF AMD
KILN 171044Z 1711/1806 00000KT 3SM BR OVC030
     FM171300 VRB03KT P6SM BKN035
     FM171800 26004KT P6SM SCT035 BKN120
     FM172300 35004KT P6SM BKN100=



000
FTUS41 KILN 171000 AAC
TAFDAY
TAF AMD
KDAY 171044Z 1711/1806 00000KT P6SM SCT030
     FM171400 VRB03KT P6SM SCT030
     FM171800 26004KT P6SM SCT035 BKN120
     FM172300 35004KT P6SM FEW100=



000
FTUS41 KILN 171000 AAB
TAFCVG
TAF AMD
KCVG 171043Z 1711/1812 00000KT 5SM BCFG BR BKN028
     FM171200 00000KT P6SM BKN030
     FM171500 VRB03KT P6SM SCT030
     FM171800 26004KT P6SM SCT035 BKN120
     FM172300 34004KT P6SM BKN100=



000
FTUS41 KILN 171000 AAB
TAFLUK
TAF AMD
KLUK 171043Z 1711/1806 00000KT P6SM OVC035
     FM171800 26004KT P6SM SCT035 BKN120
     FM172300 VRB02KT P6SM BKN100=



000
FTUS41 KILN 170900 AAA
TAFLUK
TAF AMD
KLUK 170942Z 1710/1806 00000KT 6SM BR OVC035
      TEMPO 1710/1712 2SM BR
     FM171300 VRB03KT P6SM SKC
     FM171800 26004KT P6SM SCT035 BKN120
     FM172300 VRB02KT P6SM BKN100=



000
FTUS41 KILN 170900 AAB
TAFLCK
TAF AMD
KLCK 170910Z 1709/1806 00000KT P6SM OVC040
     FM171300 VRB03KT P6SM SCT030
     FM171800 26004KT P6SM SCT035 SCT120
     FM172300 35004KT P6SM FEW100=



000
FTUS41 KILN 170900 AAA
TAFCMH
TAF AMD
KCMH 170908Z 1709/1806 00000KT P6SM BKN040
     FM171400 VRB03KT P6SM SCT030
     FM171800 26004KT P6SM SCT035 SCT120
     FM172300 35004KT P6SM FEW100=



000
FTUS41 KILN 170900 AAA
TAFILN
TAF AMD
KILN 170908Z 1709/1806 00000KT 3SM BR OVC030
      TEMPO 1709/1712 1SM BR
     FM171300 VRB03KT P6SM SCT030
     FM171800 26004KT P6SM SCT035 BKN120
     FM172300 35004KT P6SM BKN100=



000
FTUS41 KILN 170900 AAB
TAFDAY
TAF AMD
KDAY 170906Z 1709/1806 00000KT P6SM SCT030
      TEMPO 1709/1711 3SM BR
     FM171200 00000KT P6SM SKC
     FM171400 VRB03KT P6SM SCT030
     FM171800 26004KT P6SM SCT035 BKN120
     FM172300 35004KT P6SM FEW100=



000
FTUS41 KILN 170800 AAA
TAFCVG
TAF AMD
KCVG 170858Z 1709/1812 00000KT 4SM BR SKC
     FM171200 00000KT P6SM SKC
     FM171500 VRB03KT P6SM SCT030
     FM171800 26004KT P6SM SCT035 BKN120
     FM172300 34004KT P6SM BKN100=



000
FTUS41 KILN 170800 AAA
TAFDAY
TAF AMD
KDAY 170828Z 1708/1806 00000KT 1SM BR SKC
      TEMPO 1709/1711 3/4SM BR SCT001
     FM171200 00000KT P6SM SKC
     FM171400 VRB03KT P6SM SCT030
     FM171800 26004KT P6SM SCT035 BKN120
     FM172300 35004KT P6SM FEW100=



000
FTUS41 KILN 170700 AAA
TAFLCK
TAF AMD
KLCK 170704Z 1707/1806 00000KT 4SM BR BKN002
     FM170800 00000KT 1SM BR BKN002
      TEMPO 1709/1712 1/4SM FG VV002
     FM171200 00000KT 2SM BR SCT002
     FM171300 VRB03KT P6SM SCT030
     FM171800 26004KT P6SM SCT035 SCT120
     FM172300 35004KT P6SM FEW100=



000
FTUS41 KILN 170700 AAA
TAFILN
TAF AMD
KILN 170703Z 1707/1806 00000KT 1SM BR SKC
      TEMPO 1708/1712 1/4SM FG VV001
     FM171200 00000KT 2SM BR SCT001
     FM171300 VRB03KT P6SM SCT030
     FM171800 26004KT P6SM SCT035 BKN120
     FM172300 35004KT P6SM BKN100=



000
FTUS41 KILN 170500
TAFCMH
TAF
KCMH 170534Z 1706/1806 00000KT P6SM SKC
     FM170800 00000KT 4SM BR SKC
     FM171200 00000KT P6SM SKC
     FM171400 VRB03KT P6SM SCT030
     FM171800 26004KT P6SM SCT035 SCT120
     FM172300 35004KT P6SM FEW100=



000
FTUS41 KILN 170500
TAFLUK
TAF
KLUK 170534Z 1706/1806 00000KT P6SM SKC
     FM170700 00000KT 2SM BR SKC
     FM170800 00000KT 1/4SM FG VV001
     FM171200 00000KT 1SM BR SCT001 SCT035
     FM171300 VRB03KT P6SM SKC
     FM171800 26004KT P6SM SCT035 BKN120
     FM172300 VRB02KT P6SM BKN100=



000
FTUS41 KILN 170500
TAFLCK
TAF
KLCK 170534Z 1706/1806 00000KT P6SM SKC
     FM170700 00000KT 4SM BR SKC
     FM170800 00000KT 1SM BR SCT002
      TEMPO 1709/1712 1/4SM FG VV002
     FM171200 00000KT 2SM BR SCT002
     FM171300 VRB03KT P6SM SCT030
     FM171800 26004KT P6SM SCT035 SCT120
     FM172300 35004KT P6SM FEW100=



000
FTUS41 KILN 170500
TAFCVG
TAF
KCVG 170534Z 1706/1812 00000KT P6SM FEW025
     FM170800 00000KT 4SM BR SKC
     FM171200 00000KT P6SM SKC
     FM171500 VRB03KT P6SM SCT030
     FM171800 26004KT P6SM SCT035 BKN120
     FM172300 34004KT P6SM BKN100=



000
FTUS41 KILN 170500
TAFILN
TAF
KILN 170534Z 1706/1806 00000KT P6SM SKC
     FM170800 00000KT 4SM BR SKC
     FM170900 00000KT 1SM BR SCT001
      TEMPO 1709/1712 1/4SM FG VV001
     FM171200 00000KT 2SM BR SCT001
     FM171300 VRB03KT P6SM SCT030
     FM171800 26004KT P6SM SCT035 BKN120
     FM172300 35004KT P6SM BKN100=



000
FTUS41 KILN 170500
TAFDAY
TAF
KDAY 170534Z 1706/1806 00000KT P6SM SKC
     FM170800 00000KT 4SM BR SKC
     FM171200 00000KT P6SM SKC
     FM171400 VRB03KT P6SM SCT030
     FM171800 26004KT P6SM SCT035 BKN120
     FM172300 35004KT P6SM FEW100=



000
FTUS41 KILN 170200 AAA
TAFCVG
TAF AMD
KCVG 170248Z 1703/1806 01004KT P6SM OVC030
     FM170600 00000KT 4SM BR FEW030
     FM170800 00000KT 2SM BR FEW030
      TEMPO 1710/1712 1/2SM FG
     FM171300 00000KT 4SM BR FEW030
     FM171400 VRB03KT P6SM SCT030
     FM171600 26004KT P6SM BKN035
     FM172300 34004KT P6SM BKN120=



000
FTUS41 KILN 170200 AAA
TAFLUK
TAF AMD
KLUK 170248Z 1703/1724 00000KT P6SM OVC035
     FM170600 00000KT 2SM BR SCT001 SCT035
     FM170800 00000KT 1/4SM FG VV001
     FM171300 00000KT 1SM BR SCT001 SCT035
     FM171400 VRB03KT P6SM SCT035
     FM171600 26004KT P6SM BKN040
     FM172300 34004KT P6SM BKN120=



000
FTUS41 KILN 170200 AAA
TAFILN
TAF AMD
KILN 170248Z 1703/1724 00000KT P6SM SCT030
     FM170600 00000KT 4SM BR SKC
     FM170800 00000KT 1SM BR SCT001
      TEMPO 1709/1712 1/4SM FG VV001
     FM171300 00000KT 2SM BR SCT001
     FM171400 VRB03KT P6SM SCT030
     FM171600 26004KT P6SM BKN035
     FM172300 34004KT P6SM BKN120=



000
FTUS41 KILN 170200 AAA
TAFLCK
TAF AMD
KLCK 170248Z 1703/1724 00000KT P6SM SKC
     FM170600 00000KT 4SM BR SKC
     FM170800 00000KT 1SM BR SCT002
      TEMPO 1709/1712 1/4SM FG VV002
     FM171300 00000KT 2SM BR SCT002
     FM171400 VRB03KT P6SM SCT030
     FM171600 25004KT P6SM BKN035
     FM172300 32004KT P6SM BKN120=



000
FTUS41 KILN 170200 AAA
TAFDAY
TAF AMD
KDAY 170248Z 1703/1724 01003KT P6SM FEW035
     FM170600 00000KT 4SM BR SKC
     FM170900 00000KT 2SM BR SKC
     FM171300 00000KT 4SM BR SKC
     FM171400 VRB03KT P6SM SCT030
     FM171600 26004KT P6SM BKN035
     FM172300 34004KT P6SM BKN120=



000
FTUS41 KILN 170200 AAA
TAFCMH
TAF AMD
KCMH 170248Z 1703/1724 00000KT P6SM SKC
     FM170800 00000KT 4SM BR SKC
     FM170900 00000KT 2SM BR SKC
     FM171300 00000KT 4SM BR SKC
     FM171400 VRB03KT P6SM SCT030
     FM171600 25004KT P6SM BKN035
     FM172300 32004KT P6SM BKN120=



000
FTUS41 KILN 162300
TAFCMH
TAF
KCMH 162325Z 1700/1724 VRB03KT P6SM SCT040
     FM170800 VRB03KT 4SM BR FEW040
     FM170900 00000KT 2SM BR FEW040
      TEMPO 1709/1712 1/2SM FG
     FM171300 VRB03KT 4SM BR FEW040
     FM171400 VRB03KT P6SM SCT035
     FM171600 25004KT P6SM BKN035
     FM172300 32004KT P6SM BKN120=



000
FTUS41 KILN 162300
TAFCVG
TAF
KCVG 162325Z 1700/1806 01004KT P6SM OVC025
     FM170800 VRB03KT 4SM BR SCT025
     FM171000 00000KT 2SM BR SCT025
      TEMPO 1710/1712 1/2SM FG
     FM171300 VRB03KT 4SM BR SCT025
     FM171400 VRB03KT P6SM SCT025
     FM171600 26004KT P6SM BKN035
     FM172300 34004KT P6SM BKN120=



000
FTUS41 KILN 162300
TAFLUK
TAF
KLUK 162325Z 1700/1724 00000KT P6SM OVC030
     FM170800 00000KT 2SM BR SCT001 SCT030
     FM170900 00000KT 1/4SM FG VV001
     FM171300 00000KT 1SM BR SCT001 SCT030
     FM171400 VRB03KT P6SM SCT030
     FM171600 26004KT P6SM BKN040
     FM172300 34004KT P6SM BKN120=



000
FTUS41 KILN 162300
TAFILN
TAF
KILN 162325Z 1700/1724 01003KT P6SM OVC028
     FM170600 VRB03KT 4SM BR FEW035
     FM170800 VRB03KT 1SM BR SCT001 SCT035
      TEMPO 1709/1712 1/4SM FG VV001
     FM171300 VRB03KT 2SM BR SCT001 SCT035
     FM171400 VRB03KT P6SM SCT035
     FM171600 26004KT P6SM BKN035
     FM172300 34004KT P6SM BKN120=



000
FTUS41 KILN 162300
TAFDAY
TAF
KDAY 162325Z 1700/1724 01003KT P6SM OVC035
     FM170600 VRB03KT 4SM BR FEW035
     FM170800 VRB03KT 2SM BR FEW035
      TEMPO 1709/1712 1/2SM FG
     FM171300 VRB03KT 4SM BR FEW035
     FM171400 VRB03KT P6SM SCT035
     FM171600 26004KT P6SM BKN035
     FM172300 34004KT P6SM BKN120=



000
FTUS41 KILN 162300
TAFLCK
TAF
KLCK 162325Z 1700/1724 VRB03KT P6SM SCT040
     FM170600 00000KT 4SM BR SCT040
     FM170800 00000KT 1SM BR SCT002 SCT040
      TEMPO 1709/1712 1/4SM FG VV002
     FM171300 VRB03KT 2SM BR SCT002 SCT040
     FM171400 VRB03KT P6SM SCT035
     FM171600 25004KT P6SM BKN035
     FM172300 32004KT P6SM BKN120=



000
FTUS41 KILN 162100 AAA
TAFCVG
TAF AMD
KCVG 162116Z 1621/1724 01004KT P6SM OVC025
     FM170100 VRB03KT P6SM BKN025
     FM170800 VRB03KT 4SM BR SCT035
     FM171400 VRB03KT P6SM SCT015
     FM171500 28005KT P6SM BKN040=



000
FTUS41 KILN 162100 AAA
TAFLUK
TAF AMD
KLUK 162116Z 1621/1718 01004KT P6SM OVC028
     FM170100 00000KT P6SM BKN028
     FM170800 00000KT 4SM BR SCT035
     FM171000 00000KT 1/4SM FG VV001
     FM171300 00000KT 1SM BR SCT001
     FM171400 VRB03KT P6SM SCT015
     FM171500 VRB03KT P6SM BKN040=



000
FTUS41 KILN 162100 AAA
TAFDAY
TAF AMD
KDAY 162101Z 1621/1718 36004KT P6SM OVC035
     FM170000 VRB03KT P6SM BKN035
     FM170800 VRB03KT 4SM BR SCT035
     FM171300 VRB03KT P6SM SCT015
     FM171500 25005KT P6SM BKN035=



000
FTUS41 KILN 162000 AAA
TAFLCK
TAF AMD
KLCK 162016Z 1620/1718 VRB03KT P6SM BKN035
     FM170000 VRB03KT P6SM SCT040
     FM170800 VRB03KT 4SM BR SKC
     FM171300 VRB03KT P6SM SCT015
     FM171500 23005KT P6SM BKN035=



000
FTUS41 KILN 162000 AAA
TAFCMH
TAF AMD
KCMH 162016Z 1620/1718 VRB03KT P6SM BKN040
     FM170000 VRB03KT P6SM SCT040
     FM170800 VRB03KT 4SM BR SKC
     FM171300 VRB03KT P6SM SCT015
     FM171500 23005KT P6SM BKN035=



000
FTUS41 KILN 161700
TAFILN
TAF
KILN 161740Z 1618/1718 03006KT P6SM OVC022
     FM162200 01005KT P6SM BKN025
     FM170100 VRB03KT P6SM SKC
     FM170800 VRB03KT 4SM BR SKC
      TEMPO 1708/1712 1/2SM FG VV001
     FM171300 VRB03KT P6SM SCT015
     FM171500 28005KT P6SM BKN035=



000
FTUS41 KILN 161700
TAFCMH
TAF
KCMH 161740Z 1618/1718 03004KT P6SM OVC025
     FM162000 VRB03KT P6SM BKN025
     FM170000 VRB03KT P6SM SKC
     FM170800 VRB03KT 4SM BR SKC
     FM171300 VRB03KT P6SM SCT015
     FM171500 23005KT P6SM BKN035=



000
FTUS41 KILN 161700
TAFCVG
TAF
KCVG 161740Z 1618/1724 01006KT P6SM OVC025
     FM162200 35005KT P6SM BKN025
     FM170100 VRB03KT P6SM SKC
     FM170800 VRB03KT 4SM BR SKC
     FM171300 VRB03KT P6SM SCT015
     FM171500 28005KT P6SM BKN040=



000
FTUS41 KILN 161700
TAFLCK
TAF
KLCK 161740Z 1618/1718 03004KT P6SM OVC025
     FM162000 VRB03KT P6SM BKN025
     FM170000 VRB03KT P6SM SKC
     FM170800 VRB03KT 4SM BR SKC
     FM171300 VRB03KT P6SM SCT015
     FM171500 23005KT P6SM BKN035=



000
FTUS41 KILN 161700
TAFDAY
TAF
KDAY 161740Z 1618/1718 01007KT P6SM OVC025
     FM162000 02007KT P6SM BKN025
     FM170000 01004KT P6SM SKC
     FM170800 VRB03KT 4SM BR SKC
     FM171300 VRB03KT P6SM SCT015
     FM171500 25005KT P6SM BKN035=



000
FTUS41 KILN 161700
TAFLUK
TAF
KLUK 161740Z 1618/1718 02006KT P6SM OVC025
     FM162200 VRB03KT P6SM BKN028
     FM170100 00000KT P6SM SKC
     FM170600 00000KT 4SM BR SKC
     FM170800 00000KT 1/4SM FG VV001
     FM171200 VRB03KT P6SM SCT015
     FM171500 VRB03KT P6SM BKN040=



000
FTUS41 KILN 161500 AAB
TAFCVG
TAF AMD
KCVG 161503Z 1615/1718 01008KT P6SM OVC015
     FM161800 01008KT P6SM BKN025
     FM162000 36008KT P6SM SCT035
     FM170000 VRB03KT P6SM SKC
     FM170900 VRB03KT 4SM BR SKC
     FM171200 VRB03KT P6SM FEW015=



000
FTUS41 KILN 161400 AAA
TAFLCK
TAF AMD
KLCK 161403Z 1614/1712 36007KT P6SM OVC012
     FM161500 01007KT P6SM BKN015
     FM161700 01005KT P6SM BKN025
     FM161900 36004KT P6SM SCT035
     FM170000 VRB02KT P6SM SKC
     FM170900 VRB03KT 4SM BR SKC=



000
FTUS41 KILN 161400 AAA
TAFCMH
TAF AMD
KCMH 161402Z 1614/1712 01008KT P6SM OVC012
     FM161500 01008KT P6SM BKN015
     FM161700 01005KT P6SM BKN025
     FM161900 36004KT P6SM SCT035
     FM170000 VRB02KT P6SM SKC
     FM170900 VRB03KT 4SM BR SKC=



000
FTUS41 KILN 161400 AAA
TAFDAY
TAF AMD
KDAY 161401Z 1614/1712 01008KT P6SM OVC015
     FM161900 02008KT P6SM BKN025
     FM162000 02007KT P6SM SCT035
     FM170000 VRB03KT P6SM SKC
     FM170600 VRB03KT 4SM BR SKC=



000
FTUS41 KILN 161400 AAA
TAFILN
TAF AMD
KILN 161401Z 1614/1712 01008KT P6SM OVC015
     FM161900 02007KT P6SM BKN025
     FM162100 VRB03KT P6SM SCT035
     FM170000 VRB02KT P6SM SKC
     FM170600 00000KT 4SM BR SKC
     FM170700 00000KT 1/2SM FG VV001=



000
FTUS41 KILN 161300 AAA
TAFCVG
TAF AMD
KCVG 161359Z 1614/1718 01008KT P6SM OVC015
     FM161800 01008KT P6SM BKN025
     FM162000 36008KT P6SM SCT035
     FM170000 VRB03KT P6SM SKC
     FM170900 VRB03KT 4SM BR SKC
     FM171200 VRB03KT P6SM FEW015=



000
FTUS41 KILN 161200 AAA
TAFLUK
TAF AMD
KLUK 161223Z 1612/1712 01006KT P6SM OVC015
     FM161800 01006KT P6SM BKN025
     FM162000 01004KT P6SM SCT035
     FM170000 VRB02KT P6SM SKC
     FM170500 00000KT 4SM BR SKC
     FM170700 00000KT 1/4SM FG VV002=



000
FTUS41 KILN 161100
TAFLUK
TAF
KLUK 161127Z 1612/1712 01005KT P6SM OVC022
     FM161300 01006KT P6SM OVC015
     FM161800 01006KT P6SM BKN025
     FM162000 01004KT P6SM SCT035
     FM170000 VRB02KT P6SM SKC
     FM170500 00000KT 4SM BR SKC
     FM170700 00000KT 1/4SM FG VV002=



000
FTUS41 KILN 161100
TAFDAY
TAF
KDAY 161127Z 1612/1712 02008KT P6SM OVC008
      TEMPO 1612/1613 5SM BR
     FM161500 01008KT P6SM BKN015
     FM161900 02008KT P6SM BKN025
     FM162000 02007KT P6SM SCT035
     FM170000 VRB03KT P6SM SKC
     FM170600 VRB03KT 4SM BR SKC=



000
FTUS41 KILN 161100
TAFCMH
TAF
KCMH 161127Z 1612/1712 36008KT P6SM OVC009
     FM161500 01008KT P6SM BKN015
     FM161700 01005KT P6SM BKN025
     FM161900 36004KT P6SM SCT035
     FM170000 VRB02KT P6SM SKC
     FM170900 VRB03KT 4SM BR SKC=



000
FTUS41 KILN 161100
TAFILN
TAF
KILN 161127Z 1612/1712 01007KT P6SM OVC008
     FM161500 01007KT P6SM BKN015
     FM161900 02007KT P6SM BKN025
     FM162100 VRB03KT P6SM SCT035
     FM170000 VRB02KT P6SM SKC
     FM170600 00000KT 4SM BR SKC
     FM170700 00000KT 1/2SM FG VV001=



000
FTUS41 KILN 161100
TAFLCK
TAF
KLCK 161127Z 1612/1712 36007KT P6SM OVC009
     FM161500 01007KT P6SM BKN015
     FM161700 01005KT P6SM BKN025
     FM161900 36004KT P6SM SCT035
     FM170000 VRB02KT P6SM SKC
     FM170900 VRB03KT 4SM BR SKC=



000
FTUS41 KILN 161100
TAFCVG
TAF
KCVG 161127Z 1612/1718 01006KT P6SM OVC015
     FM161300 01008KT P6SM OVC008
     FM161500 01008KT P6SM OVC015
     FM161800 01008KT P6SM BKN025
     FM162000 36008KT P6SM SCT035
     FM170000 VRB03KT P6SM SKC
     FM170900 VRB03KT 4SM BR SKC
     FM171200 VRB03KT P6SM FEW015=



000
FTUS41 KILN 160900 AAC
TAFLCK
TAF AMD
KLCK 160935Z 1610/1706 34005KT P6SM OVC012
     FM161700 01005KT P6SM BKN025
     FM161900 36004KT P6SM SCT035
     FM170000 VRB02KT P6SM SKC=



000
FTUS41 KILN 160900 AAA
TAFILN
TAF AMD
KILN 160934Z 1610/1706 36004KT 5SM BR OVC025
      TEMPO 1610/1613 OVC010
     FM161500 01005KT P6SM OVC025
     FM161900 02005KT P6SM BKN025
     FM162100 VRB03KT P6SM SCT035
     FM170000 VRB02KT P6SM SKC=



000
FTUS41 KILN 160900 AAB
TAFLUK
TAF AMD
KLUK 160932Z 1610/1706 VRB02KT 4SM BR OVC012
     FM161500 02004KT P6SM OVC015
     FM161800 01004KT P6SM BKN025
     FM162000 01004KT P6SM SCT035
     FM170000 VRB02KT P6SM SKC=



000
FTUS41 KILN 160800 AAB
TAFCVG
TAF AMD
KCVG 160900Z 1609/1712 03005KT 5SM BR OVC005
     FM161500 02006KT P6SM OVC015
     FM161800 01007KT P6SM BKN025
     FM162000 36007KT P6SM SCT035
     FM170000 VRB03KT P6SM SKC
     FM170900 VRB03KT 4SM BR SKC=



000
FTUS41 KILN 160800 AAB
TAFLCK
TAF AMD
KLCK 160809Z 1608/1706 34006KT P6SM OVC050
     FM161100 01005KT P6SM OVC012
     FM161700 01005KT P6SM BKN025
     FM161900 36004KT P6SM SCT035
     FM170000 VRB02KT P6SM SKC=



000
FTUS41 KILN 160800 AAA
TAFLUK
TAF AMD
KLUK 160807Z 1608/1706 VRB02KT 4SM BR OVC012
      TEMPO 1609/1612 1SM BR OVC009
     FM161500 02004KT P6SM OVC015
     FM161800 01004KT P6SM BKN025
     FM162000 01004KT P6SM SCT035
     FM170000 VRB02KT P6SM SKC=



000
FTUS41 KILN 160800 AAA
TAFILN
TAF AMD
KILN 160805Z 1608/1706 36003KT 5SM -RA BR OVC025
     FM160900 36004KT 5SM BR OVC025
     FM161500 01005KT P6SM OVC015
     FM161900 02005KT P6SM BKN025
     FM162100 VRB03KT P6SM SCT035
     FM170000 VRB02KT P6SM SKC=



000
FTUS41 KILN 160700 AAA
TAFDAY
TAF AMD
KDAY 160721Z 1607/1706 01005KT 4SM BR OVC015
     FM161500 01006KT P6SM OVC014
     FM161800 36005KT P6SM BKN022
     FM162000 01004KT P6SM SCT035
     FM170000 VRB02KT P6SM SKC=



000
FTUS41 KILN 160600 AAA
TAFLCK
TAF AMD
KLCK 160606Z 1606/1706 34006KT P6SM OVC012
     FM160900 36008KT 4SM BR OVC006
     FM161500 01008KT P6SM OVC012
     FM161700 01008KT P6SM BKN025
     FM161900 36004KT P6SM SCT035
     FM170000 VRB02KT P6SM SKC=



000
FTUS41 KILN 160600 AAA
TAFCVG
TAF AMD
KCVG 160606Z 1606/1712 36005KT 5SM BR VCSH OVC005
     FM160800 02004KT 4SM BR OVC004
     FM161500 02006KT P6SM OVC015
     FM161800 01007KT P6SM BKN025
     FM162000 36007KT P6SM SCT035
     FM170000 VRB03KT P6SM SKC
     FM170900 VRB03KT 4SM BR SKC=



000
FTUS41 KILN 160500
TAFDAY
TAF
KDAY 160534Z 1606/1706 34006KT 3SM -RA BR OVC005
     FM160800 36004KT 2SM BR OVC005
     FM161300 36004KT 3SM BR OVC005
     FM161500 01006KT P6SM OVC010
     FM161800 36005KT P6SM BKN022
     FM162000 01004KT P6SM SCT035
     FM170000 VRB02KT P6SM SKC=



000
FTUS41 KILN 160500
TAFILN
TAF
KILN 160534Z 1606/1706 36008KT 3SM -RA BR OVC005
      TEMPO 1606/1608 OVC012
     FM160900 36005KT 1SM BR OVC004
     FM161300 36004KT 3SM BR OVC005
     FM161500 01005KT P6SM OVC010
     FM161900 02005KT P6SM BKN022
     FM162100 VRB03KT P6SM SCT035
     FM170000 VRB02KT P6SM SKC=



000
FTUS41 KILN 160500
TAFCMH
TAF
KCMH 160534Z 1606/1706 35006KT P6SM OVC025
     FM160800 36004KT P6SM OVC012
     FM161700 01005KT P6SM BKN025
     FM161900 36004KT P6SM SCT035
     FM170000 VRB02KT P6SM SKC=



000
FTUS41 KILN 160500
TAFLCK
TAF
KLCK 160534Z 1606/1706 34006KT 4SM -DZ BR OVC012
     FM160900 36008KT 4SM BR OVC006
     FM161500 01008KT P6SM OVC012
     FM161700 01008KT P6SM BKN025
     FM161900 36004KT P6SM SCT035
     FM170000 VRB02KT P6SM SKC=



000
FTUS41 KILN 160500
TAFLUK
TAF
KLUK 160534Z 1606/1706 35004KT P6SM VCSH OVC009
     FM160800 VRB02KT 4SM BR OVC009
      TEMPO 1608/1612 1SM BR
     FM161500 02004KT P6SM OVC015
     FM161800 01004KT P6SM BKN025
     FM162000 01004KT P6SM SCT035
     FM170000 VRB02KT P6SM SKC=



000
FTUS41 KILN 160500
TAFCVG
TAF
KCVG 160534Z 1606/1712 36005KT 5SM BR VCSH OVC035
     FM160800 02004KT 4SM BR OVC004
     FM161500 02006KT P6SM OVC015
     FM161800 01007KT P6SM BKN025
     FM162000 36007KT P6SM SCT035
     FM170000 VRB03KT P6SM SKC
     FM170900 VRB03KT 4SM BR SKC=



000
FTUS41 KILN 160400 AAB
TAFLCK
TAF AMD
KLCK 160403Z 1604/1624 29005KT P6SM VCSH OVC035
     FM160600 36006KT 5SM BR OVC012
     FM160800 36008KT 4SM BR OVC006
     FM161500 01008KT P6SM OVC012
     FM161700 01008KT P6SM BKN025
     FM161900 01008KT P6SM BKN035=



000
FTUS41 KILN 160400 AAB
TAFLUK
TAF AMD
KLUK 160402Z 1604/1624 02005KT P6SM VCSH OVC050
     FM160600 36005KT P6SM VCSH OVC015
     FM160800 36008KT 4SM BR OVC009
     FM161500 01008KT P6SM OVC018
     FM161700 01008KT P6SM BKN028
     FM161900 01008KT P6SM BKN040=



000
FTUS41 KILN 160400 AAB
TAFCVG
TAF AMD
KCVG 160401Z 1604/1706 36006KT P6SM VCSH OVC050
     FM160600 36006KT 5SM BR VCSH OVC012
     FM160800 36008KT 4SM BR OVC006
     FM161500 01008KT P6SM OVC015
     FM161700 01008KT P6SM BKN025
     FM161900 01008KT P6SM BKN035
     FM170000 01006KT P6SM SCT035=



    US Dept of Commerce
    National Oceanic and Atmospheric Administration
    National Weather Service
    1325 East West Highway
    Silver Spring, MD 20910
    Page Author: NWS Internet Services Team
Disclaimer
Information Quality
Credits
Glossary
Privacy Policy
Freedom of Information Act (FOIA)
About Us
Career Opportunities